FW8448 Weather Reports


Display with metric or nautical units.
time (UTC)temp
F
wind
direction
speed
MPH
gust
MPH
rain 1hr
in
rain 24hr
in
rain mn
in
humidity
%
barometer
mb
20230129220108 32 86 1.0 3.0 0.00 0.10 0.09 95 1022.0
20230129214537 32 360 1.0 4.0 0.00 0.10 0.09 95 1021.5
20230129213011 32 336 1.0 5.0 0.00 0.10 0.09 95 1021.0
20230129211537 33 22 1.0 4.0 0.00 0.10 0.09 96 1021.1
20230129210110 33 343 1.0 5.0 0.00 0.10 0.09 96 1021.1
20230129204524 34 103 1.0 4.0 0.00 0.10 0.09 96 1021.5
20230129203049 34 360 0.0 4.0 0.00 0.10 0.09 97 1021.3
20230129201515 34 315 0.0 3.0 0.00 0.10 0.09 97 1021.1
20230129200100 34 12 1.0 6.0 0.00 0.10 0.09 97 1020.9
20230129194537 35 46 1.0 5.0 0.00 0.10 0.09 97 1020.4
20230129193057 35 336 0.0 4.0 0.00 0.10 0.09 97 1020.2
20230129191540 35 329 0.0 4.0 0.00 0.10 0.09 97 1020.5
20230129190108 36 291 0.0 2.0 0.00 0.10 0.09 97 1020.6
20230129184511 36 322 0.0 4.0 0.00 0.10 0.09 96 1020.3
20230129183040 37 326 0.0 4.0 0.00 0.10 0.09 97 1020.3
20230129181514 37 344 0.0 5.0 0.00 0.10 0.09 96 1020.4
20230129180010 38 290 1.0 4.0 0.00 0.10 0.09 96 1020.3
20230129174534 40 295 1.0 4.0 0.00 0.10 0.09 97 1020.4
20230129173013 41 281 1.0 3.0 0.00 0.10 0.09 96 1020.3
20230129171542 42 284 3.0 13.0 0.00 0.10 0.09 96 1020.2
20230129170119 42 267 8.0 17.0 0.00 0.10 0.09 97 1020.3
20230129164514 43 253 9.0 14.0 0.00 0.10 0.09 97 1020.2
20230129163044 43 262 5.0 11.0 0.00 0.10 0.09 97 1020.1
20230129161514 43 265 3.0 10.0 0.00 0.10 0.09 98 1020.0
20230129160100 43 252 3.0 6.0 0.00 0.10 0.09 98 1019.8
20230129154607 42 232 3.0 9.0 0.00 0.10 0.09 98 1019.7
20230129154503 42 232 3.0 9.0 0.00 0.10 0.09 98 1019.9
20230129153040 42 232 2.0 8.0 0.00 0.10 0.09 98 1019.7
20230129151506 42 246 2.0 8.0 0.00 0.10 0.09 98 1019.5
20230129150042 41 257 3.0 7.0 0.00 0.10 0.09 98 1019.4
20230129144550 41 223 2.0 4.0 0.00 0.10 0.09 98 1019.1
20230129143022 41 207 2.0 6.0 0.00 0.10 0.09 98 1019.0
20230129141548 41 227 1.0 5.0 0.01 0.10 0.09 98 1018.7
20230129140119 41 213 1.0 3.0 0.01 0.10 0.09 97 1018.6
20230129134533 41 197 1.0 4.0 0.01 0.10 0.09 97 1018.6
20230129133007 41 240 2.0 6.0 0.01 0.10 0.09 97 1018.6
20230129131550 41 197 2.0 6.0 0.00 0.09 0.08 96 1018.5
20230129130116 41 221 2.0 8.0 0.00 0.09 0.08 96 1018.4
20230129124522 41 193 2.0 6.0 0.00 0.09 0.08 95 1017.9
20230129123057 41 196 2.0 5.0 0.00 0.09 0.08 95 1017.9
20230129121538 41 193 2.0 6.0 0.00 0.09 0.08 96 1017.5
20230129120103 41 215 3.0 7.0 0.00 0.09 0.08 96 1017.2
20230129114510 41 217 3.0 10.0 0.00 0.09 0.08 96 1017.3
20230129113046 41 194 3.0 7.0 0.00 0.09 0.08 96 1017.3
20230129111600 41 190 3.0 7.0 0.00 0.09 0.08 96 1017.3
20230129110124 41 186 4.0 9.0 0.00 0.09 0.08 96 1017.2
20230129104532 41 211 3.0 10.0 0.00 0.09 0.08 96 1017.3
20230129103059 41 189 3.0 9.0 0.00 0.09 0.08 96 1017.4
20230129101537 41 170 2.0 5.0 0.00 0.09 0.08 97 1017.3
20230129100100 41 213 2.0 7.0 0.01 0.09 0.08 97 1017.3
20230129094554 41 203 2.0 7.0 0.02 0.09 0.08 97 1017.4
20230129093028 41 191 1.0 6.0 0.02 0.09 0.08 97 1017.4
20230129091613 41 221 1.0 7.0 0.03 0.09 0.08 97 1017.7
20230129090038 41 200 3.0 8.0 0.03 0.08 0.07 96 1017.9
20230129084535 40 202 2.0 9.0 0.03 0.07 0.06 96 1018.3
20230129083100 40 184 2.0 5.0 0.04 0.07 0.06 96 1018.3
20230129081533 41 196 2.0 7.0 0.03 0.05 0.05 95 1018.4
20230129080100 41 180 3.0 10.0 0.03 0.06 0.04 94 1018.3
20230129074508 41 209 3.0 8.0 0.02 0.05 0.03 93 1018.4
20230129073044 41 194 4.0 8.0 0.01 0.04 0.02 92 1018.4
20230129071510 41 179 4.0 10.0 0.00 0.03 0.01 91 1018.2
20230129070041 42 234 4.0 12.0 0.00 0.03 0.01 89 1018.4
20230129064539 42 191 3.0 10.0 0.01 0.03 0.01 87 1018.5
20230129063011 41 195 2.0 7.0 0.01 0.03 0.01 90 1018.7
20230129061539 40 161 0.0 0.0 0.01 0.03 0.01 91 1018.6
20230129060105 41 161 0.0 0.0 0.02 0.03 0.01 90 1018.5
20230129054515 42 161 0.0 4.0 0.01 0.02 0.00 88 1018.7
20230129053036 42 196 2.0 11.0 0.01 0.02 0.00 87 1019.0
20230129051511 42 206 2.0 7.0 0.01 0.02 0.00 86 1019.5
20230129050009 43 236 2.0 9.0 0.00 0.01 0.01 83 1019.3
20230129044527 44 205 4.0 19.0 0.00 0.01 0.01 80 1019.5
20230129043007 45 230 5.0 11.0 0.00 0.01 0.01 72 1019.7
20230129041551 45 225 5.0 11.0 0.00 0.01 0.01 67 1019.8
20230129040111 45 171 2.0 10.0 0.00 0.01 0.01 67 1019.2
20230129034520 45 183 4.0 10.0 0.00 0.01 0.01 66 1019.2
20230129033101 44 180 3.0 7.0 0.00 0.01 0.01 69 1019.0
20230129031523 44 210 1.0 6.0 0.00 0.01 0.01 69 1019.0
20230129030059 44 170 2.0 6.0 0.00 0.02 0.01 69 1018.9
20230129024506 44 175 2.0 7.0 0.00 0.02 0.01 70 1019.2
20230129023044 44 175 1.0 7.0 0.00 0.02 0.01 72 1019.4
20230129021513 43 185 2.0 10.0 0.00 0.02 0.01 71 1019.6
20230129020047 43 157 1.0 4.0 0.00 0.03 0.01 72 1019.6
20230129014553 43 155 0.0 9.0 0.00 0.03 0.01 71 1019.8
20230129013049 44 168 0.0 5.0 0.00 0.03 0.01 72 1020.0
20230129011505 44 178 1.0 4.0 0.00 0.03 0.01 70 1020.3
20230129010039 45 172 1.0 4.0 0.00 0.05 0.01 69 1020.4
20230129004551 46 193 2.0 8.0 0.00 0.05 0.01 67 1020.7
20230129003021 46 202 5.0 9.0 0.00 0.05 0.01 67 1020.8
20230129001551 47 205 5.0 12.0 0.00 0.05 0.01 65 1020.9
20230129000005 47 204 6.0 17.0 0.00 0.07 0.01 59 1020.9
20230128234547 47 162 6.0 13.0 0.00 0.07 0.01 58 1020.6
20230128233040 47 197 3.0 10.0 0.00 0.07 0.01 61 1020.5
20230128231539 47 215 3.0 8.0 0.00 0.07 0.01 67 1020.3
20230128230043 46 193 2.0 7.0 0.00 0.08 0.01 70 1020.2
20230128224529 47 169 1.0 4.0 0.00 0.08 0.01 70 1020.1
20230128223027 48 138 1.0 6.0 0.00 0.08 0.01 68 1020.0
20230128221533 49 186 1.0 5.0 0.00 0.08 0.01 68 1020.3